Time;durP1;ratioP1;P1;durP2;ratioP2;P2;SDS_P1;SDS_P2;PMS_P1;PMS_P2;Temp;Humidity;BMP_temperature;BMP_pressure;BME280_temperature;BME280_humidity;BME280_pressure;Samples;Min_cycle;Max_cycle;Signal;HPM_P1;HPM_P2
2023/08/17 00:02:17;;;;;;;3.47;1.40;;;;;;;;;;4916689;28;20050;-80
2023/08/17 00:04:43;;;;;;;4.82;1.95;;;;;;;;;;4936395;28;20589;-80
2023/08/17 00:07:09;;;;;;;4.47;1.30;;;;;;;;;;4921450;28;20599;-80
2023/08/17 00:09:35;;;;;;;4.28;1.75;;;;;;;;;;4909774;28;20051;-79
2023/08/17 00:12:01;;;;;;;2.92;1.70;;;;;;;;;;4918021;28;20051;-80
2023/08/17 00:14:27;;;;;;;4.95;1.75;;;;;;;;;;4931638;28;20075;-80
2023/08/17 00:16:53;;;;;;;3.95;1.30;;;;;;;;;;4919200;28;20085;-80
2023/08/17 00:19:20;;;;;;;10.65;2.28;;;;;;;;;;4915748;28;20062;-80
2023/08/17 00:21:46;;;;;;;4.95;2.03;;;;;;;;;;4913892;28;20145;-79
2023/08/17 00:24:12;;;;;;;9.93;2.65;;;;;;;;;;4917746;28;20051;-80
2023/08/17 00:26:38;;;;;;;8.98;1.70;;;;;;;;;;4920812;28;20093;-80
2023/08/17 00:29:04;;;;;;;5.25;1.60;;;;;;;;;;4940736;28;20066;-81
2023/08/17 00:31:30;;;;;;;9.60;2.92;;;;;;;;;;4936290;28;20039;-80
2023/08/17 00:33:56;;;;;;;5.63;2.03;;;;;;;;;;4941124;28;20040;-81
2023/08/17 00:36:22;;;;;;;5.32;1.90;;;;;;;;;;4910946;28;20063;-80
2023/08/17 00:38:48;;;;;;;5.22;2.00;;;;;;;;;;4924832;28;20043;-81
2023/08/17 00:41:15;;;;;;;5.47;1.65;;;;;;;;;;4932740;28;20046;-80
2023/08/17 00:43:41;;;;;;;4.57;1.50;;;;;;;;;;4909054;28;20121;-80
2023/08/17 00:46:07;;;;;;;5.30;2.10;;;;;;;;;;4937868;28;20046;-80
2023/08/17 00:48:34;;;;;;;4.97;1.65;;;;;;;;;;4916076;28;20551;-80
2023/08/17 00:51:00;;;;;;;5.72;2.05;;;;;;;;;;4913613;28;20051;-79
2023/08/17 00:53:28;;;;;;;6.13;1.90;;;;;;;;;;4911499;28;20504;-80
2023/08/17 00:55:54;;;;;;;6.28;2.47;;;;;;;;;;4910633;28;20531;-79
2023/08/17 00:58:21;;;;;;;9.45;2.28;;;;;;;;;;4928837;28;20050;-80
2023/08/17 01:00:48;;;;;;;8.18;2.10;;;;;;;;;;4910498;28;20555;-80
2023/08/17 01:03:15;;;;;;;5.45;1.70;;;;;;;;;;4912946;28;20987;-80
2023/08/17 01:05:42;;;;;;;3.97;1.60;;;;;;;;;;4930225;28;20079;-80
2023/08/17 01:08:08;;;;;;;5.05;1.95;;;;;;;;;;4899325;28;20478;-80
2023/08/17 01:10:40;;;;;;;7.18;1.98;;;;;;;;;;4910007;28;20062;-80
2023/08/17 01:13:10;;;;;;;7.18;2.20;;;;;;;;;;4907743;28;21032;-81
2023/08/17 01:15:37;;;;;;;6.32;2.30;;;;;;;;;;4907625;28;20058;-80
2023/08/17 01:18:10;;;;;;;10.40;1.95;;;;;;;;;;4884425;29;20051;-81
2023/08/17 01:20:36;;;;;;;6.30;2.08;;;;;;;;;;4910658;28;20068;-80
2023/08/17 01:23:05;;;;;;;2.60;1.63;;;;;;;;;;4918276;28;20047;-81
2023/08/17 01:25:36;;;;;;;6.55;2.00;;;;;;;;;;4907844;29;20051;-81
2023/08/17 01:28:02;;;;;;;5.65;1.83;;;;;;;;;;4911340;28;20115;-81
2023/08/17 01:30:28;;;;;;;4.13;1.40;;;;;;;;;;4910282;29;20051;-81
2023/08/17 01:32:57;;;;;;;4.32;1.35;;;;;;;;;;4904929;29;20393;-81
2023/08/17 01:35:26;;;;;;;5.65;1.65;;;;;;;;;;4907130;29;20054;-81
2023/08/17 01:37:53;;;;;;;4.22;1.55;;;;;;;;;;4907338;29;20071;-80
2023/08/17 01:40:20;;;;;;;5.00;1.83;;;;;;;;;;4908999;28;20050;-80
2023/08/17 01:42:46;;;;;;;4.03;1.60;;;;;;;;;;4904096;28;20464;-81
2023/08/17 01:45:13;;;;;;;4.03;1.73;;;;;;;;;;4908972;29;20058;-79
2023/08/17 01:47:39;;;;;;;5.65;1.65;;;;;;;;;;4914774;29;20051;-79
2023/08/17 01:50:05;;;;;;;4.43;1.60;;;;;;;;;;4911432;28;20043;-80
2023/08/17 01:52:31;;;;;;;7.93;1.90;;;;;;;;;;4910141;29;20131;-80
2023/08/17 01:54:57;;;;;;;6.90;1.73;;;;;;;;;;4908927;29;20051;-80
2023/08/17 01:57:24;;;;;;;4.78;1.30;;;;;;;;;;4914138;29;20047;-81
2023/08/17 01:59:50;;;;;;;10.70;2.40;;;;;;;;;;4925295;28;20051;-80
2023/08/17 02:02:17;;;;;;;7.88;2.08;;;;;;;;;;4907603;29;20049;-81
2023/08/17 02:04:43;;;;;;;7.20;1.92;;;;;;;;;;4911659;29;20054;-80
2023/08/17 02:07:09;;;;;;;4.50;1.88;;;;;;;;;;4910911;29;20420;-81
2023/08/17 02:09:35;;;;;;;6.75;2.53;;;;;;;;;;4895291;29;20040;-80
2023/08/17 02:12:01;;;;;;;5.13;1.95;;;;;;;;;;4909831;28;20048;-81
2023/08/17 02:14:27;;;;;;;3.75;1.92;;;;;;;;;;4909609;29;20047;-81
2023/08/17 02:16:53;;;;;;;5.18;1.95;;;;;;;;;;4909896;29;20040;-81
2023/08/17 02:19:19;;;;;;;4.68;1.80;;;;;;;;;;4889512;28;20055;-82
2023/08/17 02:21:45;;;;;;;4.80;2.33;;;;;;;;;;4929932;28;20379;-80
2023/08/17 02:24:12;;;;;;;3.33;1.90;;;;;;;;;;4911253;28;20032;-80
2023/08/17 02:26:39;;;;;;;8.27;2.08;;;;;;;;;;4927881;28;20127;-81
2023/08/17 02:29:06;;;;;;;7.35;2.60;;;;;;;;;;4910423;28;22248;-80
2023/08/17 02:31:32;;;;;;;5.35;1.77;;;;;;;;;;4911557;28;20210;-80
2023/08/17 02:34:00;;;;;;;8.02;2.10;;;;;;;;;;4901142;28;20051;-80
2023/08/17 02:36:29;;;;;;;5.55;1.55;;;;;;;;;;4901356;28;20047;-80
2023/08/17 02:38:55;;;;;;;7.20;2.40;;;;;;;;;;4914064;28;20039;-80
2023/08/17 02:41:21;;;;;;;6.68;2.00;;;;;;;;;;4932111;28;20046;-80
2023/08/17 02:43:48;;;;;;;6.72;2.25;;;;;;;;;;4909591;28;20062;-80
2023/08/17 02:46:14;;;;;;;6.70;2.00;;;;;;;;;;4928210;28;20058;-79
2023/08/17 02:48:41;;;;;;;5.05;1.88;;;;;;;;;;4928263;28;20050;-80
2023/08/17 02:51:07;;;;;;;3.90;2.10;;;;;;;;;;4930827;28;20051;-80
2023/08/17 02:53:33;;;;;;;7.68;2.47;;;;;;;;;;4901163;28;21756;-80
2023/08/17 02:55:59;;;;;;;8.45;1.83;;;;;;;;;;4931090;28;20395;-80
2023/08/17 02:58:25;;;;;;;6.00;1.80;;;;;;;;;;4913115;28;20050;-80
2023/08/17 03:00:52;;;;;;;8.73;2.28;;;;;;;;;;4927863;28;20051;-81
2023/08/17 03:03:18;;;;;;;5.70;1.67;;;;;;;;;;4908420;28;20075;-80
2023/08/17 03:05:44;;;;;;;5.40;1.77;;;;;;;;;;4912573;28;20043;-81
2023/08/17 03:08:10;;;;;;;4.90;1.65;;;;;;;;;;4910076;28;20048;-80
2023/08/17 03:10:37;;;;;;;6.57;2.05;;;;;;;;;;4907704;28;20058;-81
2023/08/17 03:13:03;;;;;;;6.72;1.60;;;;;;;;;;4916545;28;20488;-81
2023/08/17 03:15:30;;;;;;;9.13;2.00;;;;;;;;;;4913068;28;20051;-80
2023/08/17 03:17:56;;;;;;;3.97;1.80;;;;;;;;;;4903770;28;22111;-81
2023/08/17 03:20:22;;;;;;;5.07;1.85;;;;;;;;;;4913891;28;20051;-80
2023/08/17 03:22:48;;;;;;;3.88;1.50;;;;;;;;;;4916598;28;20039;-81
2023/08/17 03:25:14;;;;;;;10.18;2.10;;;;;;;;;;4922274;28;20044;-81
2023/08/17 03:27:40;;;;;;;4.65;1.80;;;;;;;;;;4918189;28;20571;-81
2023/08/17 03:30:07;;;;;;;4.55;1.88;;;;;;;;;;4941534;28;20138;-81
2023/08/17 03:32:33;;;;;;;5.88;1.83;;;;;;;;;;4917845;28;20154;-79
2023/08/17 03:34:59;;;;;;;6.88;1.63;;;;;;;;;;4915597;28;20043;-80
2023/08/17 03:37:25;;;;;;;7.63;2.00;;;;;;;;;;4938387;28;20174;-81
2023/08/17 03:39:51;;;;;;;5.18;1.90;;;;;;;;;;4934622;28;20047;-81
2023/08/17 03:42:17;;;;;;;7.78;2.20;;;;;;;;;;4905494;28;20051;-81
2023/08/17 03:44:43;;;;;;;4.47;1.65;;;;;;;;;;4914388;28;20093;-81
2023/08/17 03:47:09;;;;;;;6.18;1.90;;;;;;;;;;4916676;28;20126;-81
2023/08/17 03:49:35;;;;;;;7.07;2.08;;;;;;;;;;4903941;28;20629;-80
2023/08/17 03:52:01;;;;;;;6.22;1.73;;;;;;;;;;4905151;28;20062;-81
2023/08/17 03:54:27;;;;;;;5.13;1.67;;;;;;;;;;4907892;28;20047;-81
2023/08/17 03:56:53;;;;;;;5.47;1.60;;;;;;;;;;4913728;28;20098;-80
2023/08/17 03:59:19;;;;;;;7.82;1.70;;;;;;;;;;4910156;28;20050;-81
2023/08/17 04:01:45;;;;;;;4.47;1.40;;;;;;;;;;4928395;28;20048;-81
2023/08/17 04:04:12;;;;;;;5.47;1.85;;;;;;;;;;4906847;28;20046;-80
2023/08/17 04:06:39;;;;;;;5.93;2.10;;;;;;;;;;4905385;28;20140;-81
2023/08/17 04:09:05;;;;;;;6.82;1.75;;;;;;;;;;4912181;28;20912;-81
2023/08/17 04:11:31;;;;;;;3.30;1.45;;;;;;;;;;4930504;28;20050;-81
2023/08/17 04:13:57;;;;;;;6.82;1.80;;;;;;;;;;4900029;28;20518;-81
2023/08/17 04:16:23;;;;;;;5.18;1.98;;;;;;;;;;4912962;28;20069;-79
2023/08/17 04:18:50;;;;;;;5.18;1.60;;;;;;;;;;4914467;28;21111;-81
2023/08/17 04:21:16;;;;;;;7.10;1.80;;;;;;;;;;4929510;28;20051;-80
2023/08/17 04:23:42;;;;;;;4.97;1.60;;;;;;;;;;4908990;28;20137;-81
2023/08/17 04:26:08;;;;;;;4.72;1.70;;;;;;;;;;4899493;28;20043;-80
2023/08/17 04:28:34;;;;;;;6.72;1.77;;;;;;;;;;4929241;28;20400;-80
2023/08/17 04:31:00;;;;;;;7.47;1.63;;;;;;;;;;4923105;28;20047;-80
2023/08/17 04:33:26;;;;;;;4.07;1.60;;;;;;;;;;4928847;28;20053;-80
2023/08/17 04:35:52;;;;;;;6.95;1.80;;;;;;;;;;4936300;28;20095;-80
2023/08/17 04:38:18;;;;;;;5.60;1.50;;;;;;;;;;4936812;28;20404;-80
2023/08/17 04:40:45;;;;;;;4.18;1.52;;;;;;;;;;4934924;28;20042;-80
2023/08/17 04:43:11;;;;;;;9.45;1.95;;;;;;;;;;4933769;28;20070;-80
2023/08/17 04:45:37;;;;;;;6.78;2.08;;;;;;;;;;4913059;28;21639;-80
2023/08/17 04:48:04;;;;;;;11.60;2.08;;;;;;;;;;4909101;28;20059;-81
2023/08/17 04:50:31;;;;;;;5.57;1.75;;;;;;;;;;4881006;28;20090;-81
2023/08/17 04:52:57;;;;;;;6.03;1.92;;;;;;;;;;4932698;28;20058;-81
2023/08/17 04:55:23;;;;;;;9.45;2.58;;;;;;;;;;4913377;28;21075;-80
2023/08/17 04:57:49;;;;;;;7.75;2.13;;;;;;;;;;4915453;28;20728;-80
2023/08/17 05:00:16;;;;;;;6.00;1.98;;;;;;;;;;4911640;28;20137;-81
2023/08/17 05:02:42;;;;;;;10.25;2.30;;;;;;;;;;4914639;28;20043;-81
2023/08/17 05:05:10;;;;;;;8.32;2.17;;;;;;;;;;4910616;28;20077;-81
2023/08/17 05:07:36;;;;;;;6.78;1.90;;;;;;;;;;4909912;28;20765;-81
2023/08/17 05:10:03;;;;;;;7.13;2.08;;;;;;;;;;4937651;28;21911;-80
2023/08/17 05:12:29;;;;;;;11.18;2.42;;;;;;;;;;4910006;28;20082;-79
2023/08/17 05:14:56;;;;;;;7.55;2.50;;;;;;;;;;4894524;28;20043;-80
2023/08/17 05:17:22;;;;;;;7.25;2.45;;;;;;;;;;4932495;28;20239;-73
2023/08/17 05:19:48;;;;;;;6.95;2.30;;;;;;;;;;4906099;28;20043;-73
2023/08/17 05:22:17;;;;;;;8.00;2.40;;;;;;;;;;4899473;28;20051;-74
2023/08/17 05:24:43;;;;;;;6.13;1.90;;;;;;;;;;4905773;28;20108;-73
2023/08/17 05:27:09;;;;;;;6.57;2.50;;;;;;;;;;4911530;28;20051;-74
2023/08/17 05:29:35;;;;;;;9.82;2.97;;;;;;;;;;4905842;28;20051;-81
2023/08/17 05:32:01;;;;;;;7.35;2.33;;;;;;;;;;4895604;28;20043;-73
2023/08/17 05:34:27;;;;;;;4.93;2.25;;;;;;;;;;4920271;28;21061;-74
2023/08/17 05:36:54;;;;;;;7.13;2.28;;;;;;;;;;4909129;28;20071;-74
2023/08/17 05:39:23;;;;;;;10.85;2.55;;;;;;;;;;4922815;28;20043;-74
2023/08/17 05:41:49;;;;;;;6.25;2.60;;;;;;;;;;4906428;28;22216;-73
2023/08/17 05:44:15;;;;;;;10.60;2.90;;;;;;;;;;4912863;28;20055;-74
2023/08/17 05:46:41;;;;;;;6.75;2.40;;;;;;;;;;4903754;28;20133;-81
2023/08/17 05:49:07;;;;;;;6.07;2.38;;;;;;;;;;4893482;28;20045;-80
2023/08/17 05:51:34;;;;;;;7.35;2.50;;;;;;;;;;4898725;28;20396;-80
2023/08/17 05:54:00;;;;;;;6.57;2.80;;;;;;;;;;4894689;28;22431;-74
2023/08/17 05:56:26;;;;;;;8.73;2.50;;;;;;;;;;4905438;28;20102;-74
2023/08/17 05:58:52;;;;;;;7.22;2.35;;;;;;;;;;4923390;28;20563;-73
2023/08/17 06:01:18;;;;;;;7.95;2.80;;;;;;;;;;4906458;28;20396;-74
2023/08/17 06:03:45;;;;;;;6.68;2.25;;;;;;;;;;4900969;28;20053;-74
2023/08/17 06:06:11;;;;;;;7.95;2.40;;;;;;;;;;4904671;28;20583;-73
2023/08/17 06:08:37;;;;;;;8.43;2.10;;;;;;;;;;4910254;28;20079;-74
2023/08/17 06:11:03;;;;;;;6.32;2.00;;;;;;;;;;4908802;28;20849;-74
2023/08/17 06:13:30;;;;;;;5.93;2.67;;;;;;;;;;4927407;28;20043;-74
2023/08/17 06:15:59;;;;;;;14.07;2.70;;;;;;;;;;4911561;28;20184;-74
2023/08/17 06:18:25;;;;;;;5.65;2.60;;;;;;;;;;4928744;28;20067;-74
2023/08/17 06:20:53;;;;;;;7.13;2.10;;;;;;;;;;4928417;28;20368;-74
2023/08/17 06:23:20;;;;;;;6.82;2.15;;;;;;;;;;4912500;28;20410;-74
2023/08/17 06:25:46;;;;;;;5.15;2.30;;;;;;;;;;4909304;28;20043;-74
2023/08/17 06:28:12;;;;;;;5.40;1.67;;;;;;;;;;4915350;28;20167;-75
2023/08/17 06:30:38;;;;;;;2.05;1.38;;;;;;;;;;4903888;28;20057;-75
2023/08/17 06:33:04;;;;;;;4.82;1.60;;;;;;;;;;4917504;28;20043;-75
2023/08/17 06:35:31;;;;;;;6.70;1.58;;;;;;;;;;4929756;28;20471;-76
2023/08/17 06:37:57;;;;;;;9.65;1.90;;;;;;;;;;4930504;28;20051;-76
2023/08/17 06:40:24;;;;;;;4.03;1.50;;;;;;;;;;4933391;28;20094;-76
2023/08/17 06:42:52;;;;;;;5.38;1.60;;;;;;;;;;4916853;28;20099;-75
2023/08/17 06:45:18;;;;;;;6.15;1.50;;;;;;;;;;4914122;28;20059;-74
2023/08/17 06:47:45;;;;;;;5.45;1.52;;;;;;;;;;4929685;28;20075;-75
2023/08/17 06:50:11;;;;;;;4.15;1.10;;;;;;;;;;4933254;28;20122;-75
2023/08/17 06:52:37;;;;;;;4.47;1.10;;;;;;;;;;4932484;28;20083;-74
2023/08/17 06:55:03;;;;;;;2.10;1.20;;;;;;;;;;4918999;28;20050;-74
2023/08/17 06:57:29;;;;;;;3.60;0.90;;;;;;;;;;4916453;28;20158;-74
2023/08/17 06:59:55;;;;;;;7.65;2.30;;;;;;;;;;4929290;28;21798;-75
2023/08/17 07:02:22;;;;;;;3.67;1.50;;;;;;;;;;4909651;28;20144;-74
2023/08/17 07:04:48;;;;;;;3.50;1.73;;;;;;;;;;4928968;28;20053;-74
2023/08/17 07:07:14;;;;;;;6.07;1.40;;;;;;;;;;4920628;28;20043;-75
2023/08/17 07:09:41;;;;;;;3.55;1.10;;;;;;;;;;4920260;28;20035;-74
2023/08/17 07:12:07;;;;;;;6.78;1.55;;;;;;;;;;4921712;28;20044;-74
2023/08/17 07:14:33;;;;;;;5.80;1.60;;;;;;;;;;4916162;28;20054;-76
2023/08/17 07:16:59;;;;;;;5.50;1.00;;;;;;;;;;4935532;28;20478;-76
2023/08/17 07:19:25;;;;;;;5.72;1.65;;;;;;;;;;4930432;28;20186;-75
2023/08/17 07:21:53;;;;;;;7.60;1.00;;;;;;;;;;4933907;28;20051;-75
2023/08/17 07:24:19;;;;;;;3.97;1.20;;;;;;;;;;4932538;28;20044;-76
2023/08/17 07:26:45;;;;;;;8.77;1.40;;;;;;;;;;4916340;28;20487;-75
2023/08/17 07:29:11;;;;;;;6.35;1.38;;;;;;;;;;4929067;28;20048;-75
2023/08/17 07:31:38;;;;;;;2.15;1.00;;;;;;;;;;4924024;28;20721;-75
2023/08/17 07:34:05;;;;;;;2.80;1.00;;;;;;;;;;4911805;28;20436;-76
2023/08/17 07:36:31;;;;;;;4.82;1.30;;;;;;;;;;4916330;28;20480;-76
2023/08/17 07:38:57;;;;;;;3.58;1.20;;;;;;;;;;4932312;28;20053;-74
2023/08/17 07:41:23;;;;;;;6.43;1.35;;;;;;;;;;4916304;28;20062;-75
2023/08/17 07:43:50;;;;;;;5.82;1.15;;;;;;;;;;4934723;28;20306;-76
2023/08/17 07:46:16;;;;;;;3.97;1.08;;;;;;;;;;4931324;28;21825;-77
2023/08/17 07:48:42;;;;;;;3.55;1.13;;;;;;;;;;4910579;28;20799;-75
2023/08/17 07:51:08;;;;;;;3.67;1.17;;;;;;;;;;4934023;28;20066;-75
2023/08/17 07:53:34;;;;;;;6.55;1.10;;;;;;;;;;4910182;28;20043;-75
2023/08/17 07:56:01;;;;;;;6.05;1.08;;;;;;;;;;4929951;28;20090;-81
2023/08/17 07:58:27;;;;;;;2.50;0.90;;;;;;;;;;4928112;28;20090;-75
2023/08/17 08:00:53;;;;;;;3.95;1.23;;;;;;;;;;4909202;28;20047;-75
2023/08/17 08:03:20;;;;;;;4.00;1.45;;;;;;;;;;4912067;28;20140;-76
2023/08/17 08:05:46;;;;;;;7.20;1.92;;;;;;;;;;4932370;28;20058;-75
2023/08/17 08:08:12;;;;;;;2.05;1.08;;;;;;;;;;4931757;28;20059;-75
2023/08/17 08:10:38;;;;;;;10.90;1.15;;;;;;;;;;4914058;28;20044;-77
2023/08/17 08:13:04;;;;;;;7.35;1.35;;;;;;;;;;4913650;28;20073;-75
2023/08/17 08:15:30;;;;;;;5.50;1.30;;;;;;;;;;4915726;28;20046;-75
2023/08/17 08:17:57;;;;;;;5.85;1.27;;;;;;;;;;4930983;28;20475;-75
2023/08/17 08:20:23;;;;;;;4.90;1.05;;;;;;;;;;4915787;28;20050;-75
2023/08/17 08:22:49;;;;;;;2.15;1.02;;;;;;;;;;4926515;28;20043;-76
2023/08/17 08:25:15;;;;;;;6.43;1.27;;;;;;;;;;4901693;28;20051;-75
2023/08/17 08:27:41;;;;;;;3.88;0.93;;;;;;;;;;4924842;28;20673;-76
2023/08/17 08:30:07;;;;;;;4.57;1.52;;;;;;;;;;4928535;28;20046;-76
2023/08/17 08:32:33;;;;;;;3.60;1.30;;;;;;;;;;4914131;28;20043;-76
2023/08/17 08:34:59;;;;;;;3.90;1.13;;;;;;;;;;4931647;28;20483;-75
2023/08/17 08:37:26;;;;;;;11.45;1.30;;;;;;;;;;4919531;28;20118;-75
2023/08/17 08:39:53;;;;;;;4.72;1.35;;;;;;;;;;4922795;28;20047;-75
2023/08/17 08:42:20;;;;;;;5.10;1.27;;;;;;;;;;4936446;28;20411;-76
2023/08/17 08:44:46;;;;;;;3.10;1.13;;;;;;;;;;4932414;28;20085;-75
2023/08/17 08:47:13;;;;;;;5.03;1.10;;;;;;;;;;4934218;28;20066;-76
2023/08/17 08:49:47;;;;;;;2.25;1.10;;;;;;;;;;4901422;28;20193;-76
2023/08/17 08:52:20;;;;;;;5.78;1.85;;;;;;;;;;4913277;28;20094;-76
2023/08/17 08:54:50;;;;;;;7.13;1.42;;;;;;;;;;4932166;28;20044;-76
2023/08/17 08:57:16;;;;;;;6.30;1.65;;;;;;;;;;4932720;28;20486;-76
2023/08/17 08:59:45;;;;;;;7.13;1.48;;;;;;;;;;4931513;28;20047;-75
2023/08/17 09:02:16;;;;;;;4.97;1.67;;;;;;;;;;4916962;28;20074;-75
2023/08/17 09:04:45;;;;;;;4.03;1.33;;;;;;;;;;4913264;28;20419;-75
2023/08/17 09:07:15;;;;;;;3.65;1.17;;;;;;;;;;4915291;28;20047;-76
2023/08/17 09:09:41;;;;;;;4.22;1.15;;;;;;;;;;4916025;28;20049;-75
2023/08/17 09:12:09;;;;;;;3.50;1.42;;;;;;;;;;4914525;28;21850;-76
2023/08/17 09:14:37;;;;;;;7.28;1.52;;;;;;;;;;4932676;28;20046;-76
2023/08/17 09:17:03;;;;;;;5.85;1.20;;;;;;;;;;4916872;28;20936;-76
2023/08/17 09:19:29;;;;;;;6.43;1.70;;;;;;;;;;4922224;28;20079;-76
2023/08/17 09:21:55;;;;;;;5.00;1.60;;;;;;;;;;4915338;28;20855;-75
2023/08/17 09:24:21;;;;;;;4.00;1.30;;;;;;;;;;4914903;28;20044;-75
2023/08/17 09:26:50;;;;;;;2.63;1.00;;;;;;;;;;4924804;28;20046;-76
2023/08/17 09:29:20;;;;;;;3.63;1.20;;;;;;;;;;4932148;28;20039;-76
2023/08/17 09:31:47;;;;;;;5.63;1.55;;;;;;;;;;4930925;28;20051;-75
2023/08/17 09:34:15;;;;;;;7.88;1.48;;;;;;;;;;4930739;28;20075;-76
2023/08/17 09:36:42;;;;;;;4.88;1.05;;;;;;;;;;4913053;28;20145;-75
2023/08/17 09:39:08;;;;;;;6.85;1.58;;;;;;;;;;4930182;28;20078;-75
2023/08/17 09:41:41;;;;;;;3.60;1.25;;;;;;;;;;4899868;28;20125;-75
2023/08/17 09:44:08;;;;;;;5.80;1.25;;;;;;;;;;4908498;28;20411;-75
2023/08/17 09:46:34;;;;;;;4.60;1.30;;;;;;;;;;4925239;28;20039;-75
2023/08/17 09:49:04;;;;;;;2.95;1.13;;;;;;;;;;4914887;28;20082;-75
2023/08/17 09:51:30;;;;;;;4.00;1.25;;;;;;;;;;4914177;28;20050;-76
2023/08/17 09:53:57;;;;;;;3.83;1.50;;;;;;;;;;4930219;28;20049;-76
2023/08/17 09:56:24;;;;;;;5.43;1.38;;;;;;;;;;4931005;28;20046;-76
2023/08/17 09:58:52;;;;;;;6.13;1.10;;;;;;;;;;4924424;28;21801;-76
2023/08/17 10:01:19;;;;;;;7.32;1.65;;;;;;;;;;4918674;28;20050;-76
2023/08/17 10:03:46;;;;;;;4.15;1.15;;;;;;;;;;4925563;28;20138;-76
2023/08/17 10:06:13;;;;;;;6.82;0.82;;;;;;;;;;4928433;28;20619;-75
2023/08/17 10:08:44;;;;;;;7.88;1.17;;;;;;;;;;4929709;28;20055;-75
2023/08/17 10:11:10;;;;;;;8.65;1.63;;;;;;;;;;4907256;28;20044;-75
2023/08/17 10:13:49;;;;;;;4.60;1.25;;;;;;;;;;4897733;28;20583;-76
2023/08/17 10:16:18;;;;;;;3.85;1.25;;;;;;;;;;4928277;28;20729;-76
2023/08/17 10:18:47;;;;;;;6.38;1.27;;;;;;;;;;4915295;28;20054;-76
2023/08/17 10:21:29;;;;;;;5.18;1.25;;;;;;;;;;4930214;28;20527;-76
2023/08/17 10:23:56;;;;;;;4.05;1.80;;;;;;;;;;4933771;28;20049;-75
2023/08/17 10:26:22;;;;;;;2.75;1.10;;;;;;;;;;4914726;28;20056;-75
2023/08/17 10:28:49;;;;;;;7.00;1.48;;;;;;;;;;4930808;28;20159;-75
2023/08/17 10:31:15;;;;;;;7.20;1.40;;;;;;;;;;4930339;28;20078;-75
2023/08/17 10:33:44;;;;;;;7.63;1.75;;;;;;;;;;4915040;28;20043;-76
2023/08/17 10:36:11;;;;;;;6.65;1.38;;;;;;;;;;4931297;28;20056;-75
2023/08/17 10:38:38;;;;;;;5.35;1.55;;;;;;;;;;4924672;28;20035;-75
2023/08/17 10:41:09;;;;;;;4.60;1.15;;;;;;;;;;4912841;28;20459;-76
2023/08/17 10:43:36;;;;;;;8.25;1.52;;;;;;;;;;4910872;28;20155;-73
2023/08/17 10:46:16;;;;;;;3.00;1.50;;;;;;;;;;4926572;28;20162;-74
2023/08/17 10:48:44;;;;;;;9.82;1.90;;;;;;;;;;4904965;28;20039;-76
2023/08/17 10:51:13;;;;;;;7.85;1.52;;;;;;;;;;4909224;28;20459;-75
2023/08/17 10:53:42;;;;;;;6.85;1.42;;;;;;;;;;4897614;28;20044;-76
2023/08/17 10:56:11;;;;;;;3.58;1.50;;;;;;;;;;4933794;28;20090;-75
2023/08/17 10:58:37;;;;;;;6.45;1.92;;;;;;;;;;4914510;28;20582;-75
2023/08/17 11:01:03;;;;;;;8.18;1.65;;;;;;;;;;4916416;28;20065;-76
2023/08/17 11:03:29;;;;;;;5.97;1.50;;;;;;;;;;4932845;28;20195;-76
2023/08/17 11:05:56;;;;;;;9.25;1.83;;;;;;;;;;4914088;28;20034;-76
2023/08/17 11:08:22;;;;;;;4.60;1.30;;;;;;;;;;4906430;28;20071;-76
2023/08/17 11:10:59;;;;;;;8.60;1.50;;;;;;;;;;4915939;28;20101;-75
2023/08/17 11:13:25;;;;;;;6.30;1.30;;;;;;;;;;4932520;28;20110;-75
2023/08/17 11:15:51;;;;;;;5.43;1.70;;;;;;;;;;4931745;28;20050;-76
2023/08/17 11:18:17;;;;;;;5.57;1.55;;;;;;;;;;4900364;28;20059;-75
2023/08/17 11:20:44;;;;;;;10.55;2.25;;;;;;;;;;4915944;28;20463;-75
2023/08/17 11:23:10;;;;;;;6.82;1.50;;;;;;;;;;4914016;28;20043;-77
2023/08/17 11:25:38;;;;;;;3.92;1.33;;;;;;;;;;4913830;28;20146;-76
2023/08/17 11:28:04;;;;;;;6.07;1.45;;;;;;;;;;4932192;28;20039;-77
2023/08/17 11:30:33;;;;;;;4.63;1.30;;;;;;;;;;4920732;28;20162;-76
2023/08/17 11:33:00;;;;;;;5.13;1.38;;;;;;;;;;4914380;28;20133;-76
2023/08/17 11:35:26;;;;;;;5.97;1.35;;;;;;;;;;4932032;28;20039;-76
2023/08/17 11:37:52;;;;;;;5.95;1.45;;;;;;;;;;4931656;28;20882;-76
2023/08/17 11:40:18;;;;;;;8.15;1.50;;;;;;;;;;4912626;28;20051;-76
2023/08/17 11:42:45;;;;;;;5.57;1.45;;;;;;;;;;4911509;28;20051;-76
2023/08/17 11:45:12;;;;;;;9.15;1.80;;;;;;;;;;4916002;28;20145;-76
2023/08/17 11:47:39;;;;;;;4.70;1.52;;;;;;;;;;4929639;28;20040;-76
2023/08/17 11:50:06;;;;;;;3.33;1.50;;;;;;;;;;4929687;28;20558;-76
2023/08/17 11:52:32;;;;;;;6.88;1.52;;;;;;;;;;4931287;28;20475;-75
2023/08/17 11:54:59;;;;;;;4.80;1.48;;;;;;;;;;4929395;28;20050;-75
2023/08/17 11:57:26;;;;;;;5.47;1.48;;;;;;;;;;4930623;28;20050;-75
2023/08/17 11:59:55;;;;;;;6.07;1.70;;;;;;;;;;4916945;28;20194;-75
2023/08/17 12:02:23;;;;;;;4.72;1.55;;;;;;;;;;4932668;28;20094;-76
2023/08/17 12:04:49;;;;;;;3.10;2.05;;;;;;;;;;4911239;28;21436;-76
2023/08/17 12:07:18;;;;;;;7.50;1.90;;;;;;;;;;4929591;28;21289;-76
2023/08/17 12:09:46;;;;;;;5.60;1.70;;;;;;;;;;4912238;28;20051;-76
2023/08/17 12:12:12;;;;;;;4.18;1.40;;;;;;;;;;4913872;28;20046;-76
2023/08/17 12:14:45;;;;;;;3.25;1.20;;;;;;;;;;4913900;28;20042;-76
2023/08/17 12:17:16;;;;;;;3.88;1.80;;;;;;;;;;4918459;28;20094;-76
2023/08/17 12:19:42;;;;;;;4.45;1.38;;;;;;;;;;4909744;28;20083;-76
2023/08/17 12:22:09;;;;;;;5.93;1.40;;;;;;;;;;4920285;28;20063;-73
2023/08/17 12:24:36;;;;;;;5.10;1.52;;;;;;;;;;4907182;29;20055;-74
2023/08/17 12:27:06;;;;;;;5.63;1.20;;;;;;;;;;4907045;28;20078;-73
2023/08/17 12:29:32;;;;;;;4.75;1.45;;;;;;;;;;4908353;29;20517;-74
2023/08/17 12:31:59;;;;;;;3.78;1.10;;;;;;;;;;4913215;28;20134;-73
2023/08/17 12:34:25;;;;;;;4.75;1.58;;;;;;;;;;4913398;29;20071;-73
2023/08/17 12:36:51;;;;;;;4.70;1.42;;;;;;;;;;4919142;29;20046;-74
2023/08/17 12:39:17;;;;;;;6.85;1.50;;;;;;;;;;4910333;29;20788;-73
2023/08/17 12:41:44;;;;;;;1.95;1.20;;;;;;;;;;4909926;29;20040;-73
2023/08/17 12:44:13;;;;;;;2.88;1.30;;;;;;;;;;4909442;29;20062;-74
2023/08/17 12:46:42;;;;;;;5.38;1.55;;;;;;;;;;4915619;29;20054;-73
2023/08/17 12:49:08;;;;;;;10.13;1.80;;;;;;;;;;4892010;29;20062;-73
2023/08/17 12:51:35;;;;;;;2.53;1.27;;;;;;;;;;4906922;28;20039;-73
2023/08/17 12:54:01;;;;;;;4.22;1.90;;;;;;;;;;4905936;29;20134;-74
2023/08/17 12:56:27;;;;;;;8.15;1.83;;;;;;;;;;4907393;29;20043;-74
2023/08/17 12:58:53;;;;;;;9.45;1.50;;;;;;;;;;4908434;29;21077;-73
2023/08/17 13:01:19;;;;;;;9.88;1.38;;;;;;;;;;4905256;29;20475;-73
2023/08/17 13:03:45;;;;;;;3.78;1.42;;;;;;;;;;4907873;28;20050;-72
2023/08/17 13:06:11;;;;;;;2.75;1.20;;;;;;;;;;4906858;29;20550;-74
2023/08/17 13:08:37;;;;;;;5.00;1.27;;;;;;;;;;4909006;29;20058;-73
2023/08/17 13:11:11;;;;;;;6.97;1.38;;;;;;;;;;4904575;29;21031;-74
2023/08/17 13:13:37;;;;;;;2.83;1.10;;;;;;;;;;4905169;29;20044;-74
2023/08/17 13:16:03;;;;;;;3.80;1.45;;;;;;;;;;4892900;29;20079;-74
2023/08/17 13:18:29;;;;;;;4.90;1.50;;;;;;;;;;4911772;28;20128;-74
2023/08/17 13:20:55;;;;;;;7.72;1.60;;;;;;;;;;4906985;28;20153;-75
2023/08/17 13:23:22;;;;;;;5.53;1.40;;;;;;;;;;4907818;28;20054;-73
2023/08/17 13:25:48;;;;;;;4.63;1.42;;;;;;;;;;4906396;28;20563;-73
2023/08/17 13:28:14;;;;;;;6.07;2.00;;;;;;;;;;4906842;28;20138;-74
2023/08/17 13:30:40;;;;;;;8.02;2.05;;;;;;;;;;4921506;28;20117;-74
2023/08/17 13:33:06;;;;;;;5.57;1.52;;;;;;;;;;4922960;28;20514;-73
2023/08/17 13:35:33;;;;;;;8.25;2.05;;;;;;;;;;4925780;28;20162;-74
2023/08/17 13:37:59;;;;;;;4.65;2.00;;;;;;;;;;4912095;28;20126;-74
2023/08/17 13:40:25;;;;;;;6.10;1.65;;;;;;;;;;4923316;28;20055;-74
2023/08/17 13:42:51;;;;;;;3.40;1.50;;;;;;;;;;4910985;28;20695;-74
2023/08/17 13:45:17;;;;;;;5.43;1.83;;;;;;;;;;4909065;28;20783;-73
2023/08/17 13:47:43;;;;;;;9.45;1.92;;;;;;;;;;4934648;28;20047;-72
2023/08/17 13:50:10;;;;;;;4.78;1.48;;;;;;;;;;4910102;28;20051;-73
2023/08/17 13:52:36;;;;;;;5.18;1.30;;;;;;;;;;4910547;28;20055;-74
2023/08/17 13:55:03;;;;;;;4.90;1.73;;;;;;;;;;4905027;28;20042;-74
2023/08/17 13:57:29;;;;;;;5.07;1.70;;;;;;;;;;4905436;28;20095;-73
2023/08/17 13:59:55;;;;;;;5.25;1.88;;;;;;;;;;4925967;28;20079;-74
2023/08/17 14:02:21;;;;;;;5.47;1.55;;;;;;;;;;4926212;28;20053;-73
2023/08/17 14:04:48;;;;;;;5.20;1.60;;;;;;;;;;4925777;28;20146;-73
2023/08/17 14:07:14;;;;;;;7.68;2.25;;;;;;;;;;4909627;28;20051;-74
2023/08/17 14:09:40;;;;;;;7.30;2.05;;;;;;;;;;4902985;28;20055;-74
2023/08/17 14:12:06;;;;;;;7.13;2.17;;;;;;;;;;4907221;28;20046;-74
2023/08/17 14:14:33;;;;;;;6.38;1.95;;;;;;;;;;4908241;28;20058;-73
2023/08/17 14:16:59;;;;;;;5.35;2.25;;;;;;;;;;4925403;28;20071;-73
2023/08/17 14:19:25;;;;;;;5.40;1.90;;;;;;;;;;4909079;28;20138;-73
2023/08/17 14:21:52;;;;;;;4.82;2.20;;;;;;;;;;4906129;28;20043;-73
2023/08/17 14:24:18;;;;;;;5.15;2.03;;;;;;;;;;4905258;28;20173;-73
2023/08/17 14:26:44;;;;;;;3.40;1.85;;;;;;;;;;4905914;28;20082;-73
2023/08/17 14:29:10;;;;;;;5.70;2.13;;;;;;;;;;4926852;28;20039;-73
2023/08/17 14:31:37;;;;;;;5.22;2.35;;;;;;;;;;4927921;28;20875;-73
2023/08/17 14:34:03;;;;;;;7.40;2.60;;;;;;;;;;4930811;28;20077;-73
2023/08/17 14:36:29;;;;;;;8.57;2.20;;;;;;;;;;4927567;28;20042;-73
2023/08/17 14:38:55;;;;;;;6.68;2.10;;;;;;;;;;4908536;28;20098;-74
2023/08/17 14:41:21;;;;;;;7.25;2.15;;;;;;;;;;4907732;28;21645;-74